Asian Infinity — 3EVP3 — position and weather

sailwx.info

Track history (hours):
 
Tides and Currents Weather Stations Pressure Air Temp Water Temp Dewpoint Dewpoint Depression Visibility Wind Speed Wind Dir Waves Ship Positions

Asian Infinity

Last reported at 2017-Nov-13 02:00 UTC. Time now 2017-Nov-23 07:44 UTC.
Position N 38°43' E 121°52'.
Warning: this ship's position is 10 days out of date.

Length 104 m; draft 5.9 m.

Type: Cargo ship. MMSI: 351868000.

Date/timePositionNaut miles runAvg speedWind from/ knotsBaromVisibWave heightAir tempDewpointWater temp
2017-Nov-13 02:00N 38°43' E 121°52'4 7.9
2017-Nov-13 01:27N 38°41' E 121°57'  
2017-Nov-09 17:53N 35°24' E 122°04'63 8.4
2017-Nov-09 10:19N 34°24' E 122°30'17210.6
2017-Nov-08 18:05N 31°33' E 122°51'31 8.7
2017-Nov-08 14:31N 31°05' E 122°36'3 8.2
2017-Nov-08 14:08N 31°03' E 122°33'3 8.6
2017-Nov-08 13:46N 30°60' E 122°32'2 6.6
2017-Nov-08 13:30N 30°59' E 122°30'4 8.8
2017-Nov-08 13:00N 31°01' E 122°25'510.2
2017-Nov-08 12:30N 31°02' E 122°20'510.2
2017-Nov-08 12:00N 31°02' E 122°14'510.5
2017-Nov-08 11:30N 31°03' E 122°08'612.4
2017-Nov-08 11:00N 31°05' E 122°01'813.2
2017-Nov-08 10:26N 31°09' E 121°53'613.8
2017-Nov-08 10:00N 31°13' E 121°48'713.1
2017-Nov-08 09:30N 31°18' E 121°43'611.2
2017-Nov-08 09:00N 31°22' E 121°38'510.2
2017-Nov-08 08:30N 31°24' E 121°33'3 5.1
2017-Nov-08 08:00N 31°22' E 121°30'2 3.1
2017-Nov-08 07:27N 31°21' E 121°31'0 0.0
2017-Nov-08 07:00N 31°21' E 121°31'0 0.0
2017-Nov-08 06:30N 31°21' E 121°31'0 0.0
2017-Nov-08 06:00N 31°21' E 121°31'0 0.0
2017-Nov-08 05:27N 31°21' E 121°31'0 0.0
2017-Nov-08 04:54N 31°21' E 121°31'0 0.0
2017-Nov-08 04:24N 31°21' E 121°31'0 0.0
2017-Nov-08 04:00N 31°21' E 121°31'0 0.0
2017-Nov-08 03:30N 31°21' E 121°31'0 0.0
2017-Nov-08 02:57N 31°21' E 121°31'0 0.0
2017-Nov-08 02:27N 31°21' E 121°31'0 0.0
2017-Nov-08 02:00N 31°21' E 121°31'0 0.0
2017-Nov-08 01:30N 31°21' E 121°31'0 0.0
2017-Nov-08 01:00N 31°21' E 121°31'0 0.0
2017-Nov-08 00:21N 31°21' E 121°31'0 0.0
2017-Nov-07 23:54N 31°21' E 121°31'0 0.0
2017-Nov-07 23:30N 31°21' E 121°31'0 0.0
2017-Nov-07 23:00N 31°21' E 121°31'0 0.0
2017-Nov-07 22:30N 31°21' E 121°31'0 0.0
2017-Nov-07 21:54N 31°21' E 121°31'0 0.0
2017-Nov-07 21:24N 31°21' E 121°31'0 0.0
2017-Nov-07 21:00N 31°21' E 121°31'0 0.0
2017-Nov-07 20:30N 31°21' E 121°31'0 0.0
2017-Nov-07 20:00N 31°21' E 121°31'0 0.0
2017-Nov-07 19:24N 31°21' E 121°31'0 0.0
2017-Nov-07 19:00N 31°21' E 121°31'0 0.0
2017-Nov-07 18:30N 31°21' E 121°31'0 0.0
2017-Nov-07 18:00N 31°21' E 121°31'0 0.0
2017-Nov-07 17:30N 31°21' E 121°31'0 0.0
2017-Nov-07 17:00N 31°21' E 121°31'0 0.0
2017-Nov-07 16:30N 31°21' E 121°31'0 0.0
2017-Nov-07 15:57N 31°21' E 121°31'0 0.0
2017-Nov-07 15:21N 31°21' E 121°31'0 0.0
2017-Nov-07 14:57N 31°21' E 121°31'0 0.0
2017-Nov-07 14:30N 31°21' E 121°31'0 0.0
2017-Nov-07 13:57N 31°21' E 121°31'0 0.0
2017-Nov-07 13:30N 31°21' E 121°31'0 0.0
2017-Nov-07 13:00N 31°21' E 121°31'0 0.0
2017-Nov-07 12:30N 31°21' E 121°31'0 0.0
2017-Nov-07 11:57N 31°21' E 121°31'0 0.0
2017-Nov-07 11:30N 31°21' E 121°31'0 0.0
2017-Nov-07 11:00N 31°21' E 121°31'0 0.0
2017-Nov-07 10:30N 31°21' E 121°31'0 0.0
2017-Nov-07 10:00N 31°21' E 121°31'0 0.0
2017-Nov-07 09:30N 31°21' E 121°31'1 1.6
2017-Nov-07 09:00N 31°22' E 121°30'2 4.9
2017-Nov-07 08:30N 31°24' E 121°31'3 6.2
2017-Nov-07 08:00N 31°23' E 121°35'1 2.8
2017-Nov-07 07:30N 31°23' E 121°36'2 3.6
2017-Nov-07 07:00N 31°22' E 121°38'4 8.9
2017-Nov-07 06:30N 31°19' E 121°42'612.4
2017-Nov-07 06:00N 31°14' E 121°47'612.0
2017-Nov-07 05:30N 31°10' E 121°52'611.8
2017-Nov-07 05:00N 31°07' E 121°58'711.2
2017-Nov-07 04:24N 31°04' E 122°05'511.7
2017-Nov-07 04:00N 31°03' E 122°10'5 8.8
2017-Nov-07 03:23N 31°03' E 122°17'  
2017-Nov-04 07:04N 34°35' E 134°51'1 9.4
2017-Nov-04 07:00N 34°35' E 134°52'5 8.9
2017-Nov-04 06:28N 34°37' E 134°57'3 7.0
2017-Nov-04 05:58N 34°37' E 135°01'2 4.9
2017-Nov-04 05:30N 34°36' E 135°04'4 7.3
2017-Nov-04 05:01N 34°36' E 135°08'5 9.0
2017-Nov-04 04:31N 34°36' E 135°13'4 7.5
2017-Nov-04 04:00N 34°40' E 135°15'2 3.1
2017-Nov-04 03:26N 34°42' E 135°15'0 0.0
2017-Nov-04 02:56N 34°42' E 135°15'0 0.0
2017-Nov-04 02:26N 34°42' E 135°15'0 0.0
2017-Nov-04 01:56N 34°42' E 135°15'0 0.0
2017-Nov-04 01:26N 34°42' E 135°15'0 0.0
2017-Nov-04 00:56N 34°42' E 135°15'0 0.0
2017-Nov-04 00:20N 34°42' E 135°15'0 0.0
2017-Nov-03 23:56N 34°42' E 135°15'0 0.0
2017-Nov-03 23:26N 34°42' E 135°15'0 0.0
2017-Nov-03 22:14N 34°42' E 135°15'0 0.0
2017-Nov-03 21:44N 34°42' E 135°15'0 0.0
2017-Nov-03 21:26N 34°42' E 135°15'0 0.0
2017-Nov-03 20:56N 34°42' E 135°15'0 0.0
2017-Nov-03 20:20N 34°42' E 135°15'0 0.0
2017-Nov-03 19:50N 34°42' E 135°15'0 0.0
2017-Nov-03 19:26N 34°42' E 135°15'0 0.0
2017-Nov-03 18:56N 34°42' E 135°15'0 0.0
2017-Nov-03 18:26N 34°42' E 135°15'0 0.0
2017-Nov-03 17:50N 34°42' E 135°15'0 0.0
2017-Nov-03 17:26N 34°42' E 135°15'0 0.0
2017-Nov-03 16:56N 34°42' E 135°15'0 0.0
2017-Nov-03 16:26N 34°42' E 135°15'0 0.0
2017-Nov-03 15:56N 34°42' E 135°15'0 0.0
2017-Nov-03 15:26N 34°42' E 135°15'0 0.0
2017-Nov-03 14:56N 34°42' E 135°15'0 0.0
2017-Nov-03 14:26N 34°42' E 135°15'0 0.0
2017-Nov-03 13:56N 34°42' E 135°15'0 0.0
2017-Nov-03 13:26N 34°42' E 135°15'0 0.0
2017-Nov-03 12:50N 34°42' E 135°15'0 0.0
2017-Nov-03 12:20N 34°42' E 135°15'0 0.0
2017-Nov-03 11:56N 34°42' E 135°15'0 0.0
2017-Nov-03 11:26N 34°42' E 135°15'0 0.0
2017-Nov-03 10:50N 34°42' E 135°15'0 0.0
2017-Nov-03 10:02N 34°42' E 135°15'0 0.0
2017-Nov-03 09:56N 34°42' E 135°15'0 0.0
2017-Nov-03 09:26N 34°42' E 135°15'0 0.0
2017-Nov-03 08:56N 34°42' E 135°15'0 0.0
2017-Nov-03 08:26N 34°42' E 135°15'0 0.0
2017-Nov-03 07:56N 34°42' E 135°15'0 0.0
2017-Nov-03 07:26N 34°42' E 135°15'0 0.0
2017-Nov-03 06:56N 34°42' E 135°15'0 0.0
2017-Nov-03 06:20N 34°42' E 135°15'0 0.0
2017-Nov-03 05:51N 34°42' E 135°15'0 0.0
2017-Nov-03 05:21N 34°42' E 135°15'0 0.0
2017-Nov-03 04:57N 34°42' E 135°15'0 0.0
2017-Nov-03 04:27N 34°42' E 135°15'0 0.2
2017-Nov-03 04:00N 34°42' E 135°15'4 6.9
2017-Nov-03 03:29N 34°38' E 135°16'510.0
2017-Nov-03 02:59N 34°33' E 135°16'4 8.6
2017-Nov-03 02:29N 34°30' E 135°13'  
Track history (hours):
 
Tides and Currents Weather Stations Pressure Air Temp Water Temp Dewpoint Dewpoint Depression Visibility Wind Speed Wind Dir Waves Ship Positions

Asian Infinity

Last reported at 2017-Nov-13 02:00 UTC. Time now 2017-Nov-23 07:44 UTC.
Position N 38°43' E 121°52'.
Warning: this ship's position is 10 days out of date.

Length 104 m; draft 5.9 m.

Type: Cargo ship. MMSI: 351868000.

Date/timePositionNaut miles runAvg speedWind from/ knotsBaromVisibWave heightAir tempDewpointWater temp
2017-Nov-13 02:00N 38°43' E 121°52'4 7.9
2017-Nov-13 01:27N 38°41' E 121°57'  
2017-Nov-09 17:53N 35°24' E 122°04'63 8.4
2017-Nov-09 10:19N 34°24' E 122°30'17210.6
2017-Nov-08 18:05N 31°33' E 122°51'31 8.7
2017-Nov-08 14:31N 31°05' E 122°36'3 8.2
2017-Nov-08 14:08N 31°03' E 122°33'3 8.6
2017-Nov-08 13:46N 30°60' E 122°32'2 6.6
2017-Nov-08 13:30N 30°59' E 122°30'4 8.8
2017-Nov-08 13:00N 31°01' E 122°25'510.2
2017-Nov-08 12:30N 31°02' E 122°20'510.2
2017-Nov-08 12:00N 31°02' E 122°14'510.5
2017-Nov-08 11:30N 31°03' E 122°08'612.4
2017-Nov-08 11:00N 31°05' E 122°01'813.2
2017-Nov-08 10:26N 31°09' E 121°53'613.8
2017-Nov-08 10:00N 31°13' E 121°48'713.1
2017-Nov-08 09:30N 31°18' E 121°43'611.2
2017-Nov-08 09:00N 31°22' E 121°38'510.2
2017-Nov-08 08:30N 31°24' E 121°33'3 5.1
2017-Nov-08 08:00N 31°22' E 121°30'2 3.1
2017-Nov-08 07:27N 31°21' E 121°31'0 0.0
2017-Nov-08 07:00N 31°21' E 121°31'0 0.0
2017-Nov-08 06:30N 31°21' E 121°31'0 0.0
2017-Nov-08 06:00N 31°21' E 121°31'0 0.0
2017-Nov-08 05:27N 31°21' E 121°31'0 0.0
2017-Nov-08 04:54N 31°21' E 121°31'0 0.0
2017-Nov-08 04:24N 31°21' E 121°31'0 0.0
2017-Nov-08 04:00N 31°21' E 121°31'0 0.0
2017-Nov-08 03:30N 31°21' E 121°31'0 0.0
2017-Nov-08 02:57N 31°21' E 121°31'0 0.0
2017-Nov-08 02:27N 31°21' E 121°31'0 0.0
2017-Nov-08 02:00N 31°21' E 121°31'0 0.0
2017-Nov-08 01:30N 31°21' E 121°31'0 0.0
2017-Nov-08 01:00N 31°21' E 121°31'0 0.0
2017-Nov-08 00:21N 31°21' E 121°31'0 0.0
2017-Nov-07 23:54N 31°21' E 121°31'0 0.0
2017-Nov-07 23:30N 31°21' E 121°31'0 0.0
2017-Nov-07 23:00N 31°21' E 121°31'0 0.0
2017-Nov-07 22:30N 31°21' E 121°31'0 0.0
2017-Nov-07 21:54N 31°21' E 121°31'0 0.0
2017-Nov-07 21:24N 31°21' E 121°31'0 0.0
2017-Nov-07 21:00N 31°21' E 121°31'0 0.0
2017-Nov-07 20:30N 31°21' E 121°31'0 0.0
2017-Nov-07 20:00N 31°21' E 121°31'0 0.0
2017-Nov-07 19:24N 31°21' E 121°31'0 0.0
2017-Nov-07 19:00N 31°21' E 121°31'0 0.0
2017-Nov-07 18:30N 31°21' E 121°31'0 0.0
2017-Nov-07 18:00N 31°21' E 121°31'0 0.0
2017-Nov-07 17:30N 31°21' E 121°31'0 0.0
2017-Nov-07 17:00N 31°21' E 121°31'0 0.0
2017-Nov-07 16:30N 31°21' E 121°31'0 0.0
2017-Nov-07 15:57N 31°21' E 121°31'0 0.0
2017-Nov-07 15:21N 31°21' E 121°31'0 0.0
2017-Nov-07 14:57N 31°21' E 121°31'0 0.0
2017-Nov-07 14:30N 31°21' E 121°31'0 0.0
2017-Nov-07 13:57N 31°21' E 121°31'0 0.0
2017-Nov-07 13:30N 31°21' E 121°31'0 0.0
2017-Nov-07 13:00N 31°21' E 121°31'0 0.0
2017-Nov-07 12:30N 31°21' E 121°31'0 0.0
2017-Nov-07 11:57N 31°21' E 121°31'0 0.0
2017-Nov-07 11:30N 31°21' E 121°31'0 0.0
2017-Nov-07 11:00N 31°21' E 121°31'0 0.0
2017-Nov-07 10:30N 31°21' E 121°31'0 0.0
2017-Nov-07 10:00N 31°21' E 121°31'0 0.0
2017-Nov-07 09:30N 31°21' E 121°31'1 1.6
2017-Nov-07 09:00N 31°22' E 121°30'2 4.9
2017-Nov-07 08:30N 31°24' E 121°31'3 6.2
2017-Nov-07 08:00N 31°23' E 121°35'1 2.8
2017-Nov-07 07:30N 31°23' E 121°36'2 3.6
2017-Nov-07 07:00N 31°22' E 121°38'4 8.9
2017-Nov-07 06:30N 31°19' E 121°42'612.4
2017-Nov-07 06:00N 31°14' E 121°47'612.0
2017-Nov-07 05:30N 31°10' E 121°52'611.8
2017-Nov-07 05:00N 31°07' E 121°58'711.2
2017-Nov-07 04:24N 31°04' E 122°05'511.7
2017-Nov-07 04:00N 31°03' E 122°10'5 8.8
2017-Nov-07 03:23N 31°03' E 122°17'  
2017-Nov-04 07:04N 34°35' E 134°51'1 9.4
2017-Nov-04 07:00N 34°35' E 134°52'5 8.9
2017-Nov-04 06:28N 34°37' E 134°57'3 7.0
2017-Nov-04 05:58N 34°37' E 135°01'2 4.9
2017-Nov-04 05:30N 34°36' E 135°04'4 7.3
2017-Nov-04 05:01N 34°36' E 135°08'5 9.0
2017-Nov-04 04:31N 34°36' E 135°13'4 7.5
2017-Nov-04 04:00N 34°40' E 135°15'2 3.1
2017-Nov-04 03:26N 34°42' E 135°15'0 0.0
2017-Nov-04 02:56N 34°42' E 135°15'0 0.0
2017-Nov-04 02:26N 34°42' E 135°15'0 0.0
2017-Nov-04 01:56N 34°42' E 135°15'0 0.0
2017-Nov-04 01:26N 34°42' E 135°15'0 0.0
2017-Nov-04 00:56N 34°42' E 135°15'0 0.0
2017-Nov-04 00:20N 34°42' E 135°15'0 0.0
2017-Nov-03 23:56N 34°42' E 135°15'0 0.0
2017-Nov-03 23:26N 34°42' E 135°15'0 0.0
2017-Nov-03 22:14N 34°42' E 135°15'0 0.0
2017-Nov-03 21:44N 34°42' E 135°15'0 0.0
2017-Nov-03 21:26N 34°42' E 135°15'0 0.0
2017-Nov-03 20:56N 34°42' E 135°15'0 0.0
2017-Nov-03 20:20N 34°42' E 135°15'0 0.0
2017-Nov-03 19:50N 34°42' E 135°15'0 0.0
2017-Nov-03 19:26N 34°42' E 135°15'0 0.0
2017-Nov-03 18:56N 34°42' E 135°15'0 0.0
2017-Nov-03 18:26N 34°42' E 135°15'0 0.0
2017-Nov-03 17:50N 34°42' E 135°15'0 0.0
2017-Nov-03 17:26N 34°42' E 135°15'0 0.0
2017-Nov-03 16:56N 34°42' E 135°15'0 0.0
2017-Nov-03 16:26N 34°42' E 135°15'0 0.0
2017-Nov-03 15:56N 34°42' E 135°15'0 0.0
2017-Nov-03 15:26N 34°42' E 135°15'0 0.0
2017-Nov-03 14:56N 34°42' E 135°15'0 0.0
2017-Nov-03 14:26N 34°42' E 135°15'0 0.0
2017-Nov-03 13:56N 34°42' E 135°15'0 0.0
2017-Nov-03 13:26N 34°42' E 135°15'0 0.0
2017-Nov-03 12:50N 34°42' E 135°15'0 0.0
2017-Nov-03 12:20N 34°42' E 135°15'0 0.0
2017-Nov-03 11:56N 34°42' E 135°15'0 0.0
2017-Nov-03 11:26N 34°42' E 135°15'0 0.0
2017-Nov-03 10:50N 34°42' E 135°15'0 0.0
2017-Nov-03 10:02N 34°42' E 135°15'0 0.0
2017-Nov-03 09:56N 34°42' E 135°15'0 0.0
2017-Nov-03 09:26N 34°42' E 135°15'0 0.0
2017-Nov-03 08:56N 34°42' E 135°15'0 0.0
2017-Nov-03 08:26N 34°42' E 135°15'0 0.0
2017-Nov-03 07:56N 34°42' E 135°15'0 0.0
2017-Nov-03 07:26N 34°42' E 135°15'0 0.0
2017-Nov-03 06:56N 34°42' E 135°15'0 0.0
2017-Nov-03 06:20N 34°42' E 135°15'0 0.0
2017-Nov-03 05:51N 34°42' E 135°15'0 0.0
2017-Nov-03 05:21N 34°42' E 135°15'0 0.0
2017-Nov-03 04:57N 34°42' E 135°15'0 0.0
2017-Nov-03 04:27N 34°42' E 135°15'0 0.2
2017-Nov-03 04:00N 34°42' E 135°15'4 6.9
2017-Nov-03 03:29N 34°38' E 135°16'510.0
2017-Nov-03 02:59N 34°33' E 135°16'4 8.6
2017-Nov-03 02:29N 34°30' E 135°13'  

Dump ship's entire track history